Time;durP1;ratioP1;P1;durP2;ratioP2;P2;SDS_P1;SDS_P2;PMS_P1;PMS_P2;Temp;Humidity;BMP_temperature;BMP_pressure;BME280_temperature;BME280_humidity;BME280_pressure;Samples;Min_cycle;Max_cycle;Signal;HPM_P1;HPM_P2
2022/01/08 00:01:35;;;;;;;10.43;2.65;;;2.70;99.90;;;;;;5010128;28;20120;-61
2022/01/08 00:04:01;;;;;;;5.88;2.72;;;2.70;99.90;;;;;;5010658;28;20392;-61
2022/01/08 00:06:27;;;;;;;9.65;2.50;;;2.60;99.90;;;;;;5013887;28;20032;-61
2022/01/08 00:08:52;;;;;;;5.70;1.98;;;2.60;99.90;;;;;;5017223;28;20033;-61
2022/01/08 00:11:20;;;;;;;4.65;1.90;;;2.50;99.90;;;;;;5013135;28;20025;-61
2022/01/08 00:13:47;;;;;;;6.22;1.65;;;2.50;99.90;;;;;;5017990;28;20787;-62
2022/01/08 00:16:12;;;;;;;3.10;2.00;;;2.40;99.90;;;;;;5016387;28;20571;-61
2022/01/08 00:18:38;;;;;;;10.27;2.00;;;2.30;99.90;;;;;;5012452;28;20097;-62
2022/01/08 00:21:04;;;;;;;6.65;2.05;;;2.20;99.90;;;;;;5017823;28;20034;-60
2022/01/08 00:23:30;;;;;;;6.07;2.22;;;2.10;99.90;;;;;;5015168;28;20033;-62
2022/01/08 00:25:58;;;;;;;6.22;2.38;;;2.00;99.90;;;;;;5020329;28;20034;-61
2022/01/08 00:28:27;;;;;;;9.55;2.83;;;2.00;99.90;;;;;;5014319;28;20037;-61
2022/01/08 00:30:53;;;;;;;7.07;2.65;;;1.90;99.90;;;;;;5009755;28;20045;-61
2022/01/08 00:33:19;;;;;;;6.90;2.40;;;1.90;99.90;;;;;;5011672;28;20033;-61
2022/01/08 00:35:45;;;;;;;5.35;2.28;;;1.90;99.90;;;;;;5007282;28;20456;-61
2022/01/08 00:38:11;;;;;;;7.85;2.47;;;1.80;99.90;;;;;;5001111;28;20033;-58
2022/01/08 00:40:37;;;;;;;5.57;2.15;;;1.80;99.90;;;;;;5005701;28;20064;-61
2022/01/08 00:43:02;;;;;;;11.50;2.08;;;1.80;99.90;;;;;;5013945;28;20041;-61
2022/01/08 00:45:28;;;;;;;10.02;3.63;;;1.80;99.90;;;;;;5002085;28;20050;-61
2022/01/08 00:47:53;;;;;;;9.65;3.00;;;1.80;99.90;;;;;;5010910;28;20030;-62
2022/01/08 00:50:19;;;;;;;8.73;2.50;;;1.80;99.90;;;;;;5005454;28;20499;-59
2022/01/08 00:52:45;;;;;;;8.77;3.08;;;1.80;99.90;;;;;;4999402;28;20026;-61
2022/01/08 00:55:11;;;;;;;5.30;2.45;;;1.80;99.90;;;;;;5002449;28;20315;-62
2022/01/08 00:57:37;;;;;;;8.40;3.00;;;1.80;99.90;;;;;;5013052;28;20022;-62
2022/01/08 01:00:09;;;;;;;6.18;3.10;;;1.70;99.90;;;;;;5015406;28;20021;-61
2022/01/08 01:02:35;;;;;;;6.75;2.72;;;1.70;99.90;;;;;;5011524;28;20057;-61
2022/01/08 01:05:02;;;;;;;10.70;3.13;;;1.70;99.90;;;;;;5004584;28;20125;-61
2022/01/08 01:07:28;;;;;;;8.93;3.50;;;1.70;99.90;;;;;;5000507;28;20064;-58
2022/01/08 01:09:53;;;;;;;5.25;3.20;;;1.70;99.90;;;;;;5000211;28;20038;-62
2022/01/08 01:12:19;;;;;;;10.30;4.35;;;1.80;99.90;;;;;;5005311;28;20022;-61
2022/01/08 01:14:44;;;;;;;10.88;3.38;;;1.70;99.90;;;;;;5010745;28;20041;-62
2022/01/08 01:17:10;;;;;;;8.30;3.33;;;1.80;99.90;;;;;;5006171;28;20026;-62
2022/01/08 01:19:36;;;;;;;9.07;4.20;;;1.80;99.90;;;;;;5004226;28;20030;-60
2022/01/08 01:22:03;;;;;;;8.63;4.25;;;1.80;99.90;;;;;;5002910;28;20021;-60
2022/01/08 01:24:31;;;;;;;9.73;4.32;;;1.80;99.90;;;;;;4999777;28;20025;-60
2022/01/08 01:29:50;;;;;;;7.75;4.35;;;1.80;99.90;;;;;;5006546;28;20160;-61
2022/01/08 01:48:22;;;;;;;9.50;4.82;;;1.90;99.90;;;;;;5022160;28;20037;-61
2022/01/08 01:50:47;;;;;;;9.90;4.53;;;1.90;99.90;;;;;;5008034;28;20030;-61
2022/01/08 01:53:14;;;;;;;11.88;4.70;;;1.90;99.90;;;;;;5000056;28;20076;-60
2022/01/08 01:55:41;;;;;;;8.73;4.03;;;1.90;99.90;;;;;;5002334;28;20407;-61
2022/01/08 01:58:08;;;;;;;11.10;4.18;;;2.00;99.90;;;;;;5009553;28;20466;-62
2022/01/08 02:00:35;;;;;;;5.57;3.83;;;1.90;99.90;;;;;;5004205;28;20396;-61
2022/01/08 02:03:01;;;;;;;8.65;3.80;;;1.90;99.90;;;;;;5008490;28;20149;-62
2022/01/08 02:05:27;;;;;;;8.65;3.33;;;1.90;99.90;;;;;;5002693;28;20093;-61
2022/01/08 02:07:57;;;;;;;11.07;3.80;;;1.90;99.90;;;;;;5000912;28;20045;-61
2022/01/08 02:10:23;;;;;;;7.53;3.72;;;1.90;99.90;;;;;;5005119;28;20402;-59
2022/01/08 02:12:49;;;;;;;7.43;3.67;;;1.90;99.90;;;;;;5010676;28;20030;-61
2022/01/08 02:15:14;;;;;;;9.82;4.38;;;1.90;99.90;;;;;;5007181;28;20112;-60
2022/01/08 02:17:41;;;;;;;10.35;4.18;;;1.90;99.90;;;;;;5005214;28;20029;-61
2022/01/08 02:20:08;;;;;;;12.38;4.20;;;2.00;99.90;;;;;;5002914;28;20029;-61
2022/01/08 02:22:33;;;;;;;19.90;4.75;;;2.00;99.90;;;;;;5002873;28;20088;-61
2022/01/08 02:24:59;;;;;;;11.15;4.53;;;2.00;99.90;;;;;;5010850;28;20034;-61
2022/01/08 02:27:24;;;;;;;9.85;5.00;;;2.00;99.90;;;;;;5003542;28;20073;-61
2022/01/08 02:29:50;;;;;;;11.90;5.20;;;2.10;99.90;;;;;;5003350;28;20057;-60
2022/01/08 02:32:19;;;;;;;8.18;4.50;;;2.10;99.90;;;;;;5013870;28;20018;-60
2022/01/08 02:34:47;;;;;;;10.77;4.57;;;2.10;99.90;;;;;;5012867;28;20088;-60
2022/01/08 02:37:18;;;;;;;11.43;4.45;;;2.00;99.90;;;;;;5013783;28;20025;-61
2022/01/08 02:39:48;;;;;;;11.63;4.97;;;2.00;99.90;;;;;;5010508;28;20034;-60
2022/01/08 02:42:16;;;;;;;12.90;4.93;;;2.00;99.90;;;;;;5008993;28;20040;-61
2022/01/08 02:44:43;;;;;;;47.88;8.00;;;2.00;99.90;;;;;;5012022;28;20157;-60
2022/01/08 02:47:09;;;;;;;51.70;7.28;;;2.00;99.90;;;;;;5013156;28;20026;-59
2022/01/08 02:49:36;;;;;;;51.75;8.43;;;2.00;99.90;;;;;;5010025;28;20514;-61
2022/01/08 02:52:04;;;;;;;174.63;12.15;;;2.00;99.90;;;;;;5013123;28;20029;-61
2022/01/08 02:54:29;;;;;;;73.40;8.38;;;2.00;99.90;;;;;;5012938;28;20072;-60
2022/01/08 02:56:55;;;;;;;107.55;10.07;;;1.90;99.90;;;;;;5012777;28;20088;-61
2022/01/08 02:59:21;;;;;;;43.15;7.85;;;1.90;99.90;;;;;;5006551;28;20384;-61
2022/01/08 03:01:47;;;;;;;39.13;7.93;;;1.90;99.90;;;;;;5011494;28;20034;-61
2022/01/08 03:04:13;;;;;;;13.32;7.53;;;1.80;99.90;;;;;;5010784;28;20045;-62
2022/01/08 03:06:38;;;;;;;13.55;6.70;;;1.80;99.90;;;;;;5004009;28;20026;-62
2022/01/08 03:09:05;;;;;;;12.52;6.93;;;1.90;99.90;;;;;;4996637;28;20610;-60
2022/01/08 03:11:31;;;;;;;13.48;6.57;;;1.90;99.90;;;;;;5005360;28;20038;-62
2022/01/08 03:13:57;;;;;;;15.52;7.43;;;1.90;99.90;;;;;;5003451;28;20048;-61
2022/01/08 03:16:23;;;;;;;14.40;6.88;;;1.90;99.90;;;;;;5010779;28;20034;-62
2022/01/08 03:18:49;;;;;;;12.38;7.57;;;2.00;99.90;;;;;;5012621;28;20052;-60
2022/01/08 03:21:19;;;;;;;16.30;6.63;;;2.00;99.90;;;;;;5009185;28;20030;-62
2022/01/08 03:24:00;;;;;;;13.55;7.68;;;2.00;99.90;;;;;;5009413;28;20080;-61
2022/01/08 03:26:27;;;;;;;15.27;8.25;;;2.10;99.90;;;;;;5011961;28;20033;-62
2022/01/08 03:28:55;;;;;;;17.58;7.65;;;2.10;99.90;;;;;;5012479;28;20022;-62
2022/01/08 03:31:22;;;;;;;12.88;6.72;;;2.10;99.90;;;;;;5011905;28;20495;-62
2022/01/08 03:33:49;;;;;;;19.35;8.05;;;2.10;99.90;;;;;;5011931;28;20451;-61
2022/01/08 03:36:15;;;;;;;11.75;6.80;;;2.10;99.90;;;;;;5019646;28;20029;-61
2022/01/08 03:38:41;;;;;;;11.35;7.55;;;2.10;99.90;;;;;;5004404;28;20061;-61
2022/01/08 03:41:07;;;;;;;10.35;7.43;;;2.10;99.90;;;;;;5005843;28;20526;-61
2022/01/08 03:43:33;;;;;;;12.70;7.13;;;2.20;99.90;;;;;;5008753;28;20110;-61
2022/01/08 03:46:01;;;;;;;18.00;8.75;;;2.20;99.90;;;;;;5009789;28;20519;-61
2022/01/08 03:48:33;;;;;;;15.32;8.45;;;2.20;99.90;;;;;;5009142;28;20049;-61
2022/01/08 03:50:59;;;;;;;13.77;8.52;;;2.30;99.90;;;;;;5010502;28;20040;-62
2022/01/08 03:53:26;;;;;;;18.90;8.93;;;2.30;99.90;;;;;;5007935;28;20029;-60
2022/01/08 03:55:53;;;;;;;14.70;7.75;;;2.30;99.90;;;;;;5009794;28;20040;-62
2022/01/08 03:58:19;;;;;;;15.27;7.88;;;2.30;99.90;;;;;;5010662;28;20021;-60
2022/01/08 04:00:46;;;;;;;15.25;7.78;;;2.30;99.90;;;;;;5000690;28;20530;-61
2022/01/08 04:03:12;;;;;;;17.85;8.48;;;2.30;99.90;;;;;;5010389;28;20022;-61
2022/01/08 04:05:37;;;;;;;18.73;9.00;;;2.30;99.90;;;;;;5008666;28;20120;-61
2022/01/08 04:08:04;;;;;;;17.55;8.23;;;2.40;99.90;;;;;;5006986;28;20036;-62
2022/01/08 04:10:30;;;;;;;13.85;6.47;;;2.40;99.90;;;;;;5007393;28;20057;-61
2022/01/08 04:12:58;;;;;;;19.25;7.45;;;2.40;99.90;;;;;;5007492;28;20049;-61
2022/01/08 04:17:52;;;;;;;21.00;8.50;;;2.40;99.90;;;;;;5009926;28;20084;-62
2022/01/08 04:20:19;;;;;;;20.50;9.75;;;2.40;99.90;;;;;;5010124;28;20088;-62
2022/01/08 04:22:47;;;;;;;17.75;8.45;;;2.40;99.90;;;;;;5006868;28;20038;-61
2022/01/08 04:25:14;;;;;;;21.25;10.10;;;2.30;99.90;;;;;;5009065;28;20726;-62
2022/01/08 04:27:39;;;;;;;21.30;8.75;;;2.30;99.90;;;;;;5010779;28;20124;-62
2022/01/08 04:30:06;;;;;;;20.15;9.90;;;2.30;99.90;;;;;;5011875;28;20057;-62
2022/01/08 04:32:31;;;;;;;21.90;11.68;;;2.40;99.90;;;;;;5005132;28;20030;-62
2022/01/08 04:34:57;;;;;;;26.25;11.45;;;2.40;99.90;;;;;;5005160;28;20038;-62
2022/01/08 04:37:22;;;;;;;27.23;11.13;;;2.30;99.90;;;;;;5006806;28;20022;-62
2022/01/08 04:39:48;;;;;;;18.10;11.32;;;2.30;99.90;;;;;;5000444;28;20081;-61
2022/01/08 04:42:14;;;;;;;25.85;12.27;;;2.30;99.90;;;;;;5004298;28;20495;-61
2022/01/08 04:44:39;;;;;;;24.77;10.95;;;2.30;99.90;;;;;;5007116;28;20383;-61
2022/01/08 04:47:05;;;;;;;23.60;11.32;;;2.30;99.90;;;;;;5002527;28;20034;-59
2022/01/08 04:49:31;;;;;;;22.40;13.00;;;2.30;99.90;;;;;;5006109;28;20021;-62
2022/01/08 04:51:56;;;;;;;25.38;13.20;;;2.30;99.90;;;;;;5003306;28;20030;-62
2022/01/08 04:54:22;;;;;;;32.22;14.13;;;2.30;99.90;;;;;;5006292;28;20036;-59
2022/01/08 04:56:49;;;;;;;25.00;12.13;;;2.30;99.90;;;;;;5010593;28;20121;-62
2022/01/08 04:59:15;;;;;;;23.92;12.48;;;2.30;99.90;;;;;;5011293;28;20033;-62
2022/01/08 05:01:41;;;;;;;21.83;11.55;;;2.30;99.90;;;;;;5005919;28;20030;-61
2022/01/08 05:04:07;;;;;;;19.38;10.65;;;2.30;99.90;;;;;;5007412;28;20061;-62
2022/01/08 05:06:33;;;;;;;24.02;11.00;;;2.30;99.90;;;;;;5006869;28;20124;-62
2022/01/08 05:08:59;;;;;;;21.35;10.57;;;2.30;99.90;;;;;;5010714;28;20030;-61
2022/01/08 05:11:27;;;;;;;23.55;11.07;;;2.30;99.90;;;;;;5007845;28;20682;-62
2022/01/08 05:13:54;;;;;;;24.08;11.93;;;2.30;99.90;;;;;;5003099;28;20037;-60
2022/01/08 05:16:20;;;;;;;27.20;12.77;;;2.30;99.90;;;;;;4999969;28;20088;-62
2022/01/08 05:18:46;;;;;;;27.92;13.02;;;2.30;99.90;;;;;;5000160;28;20094;-62
2022/01/08 05:21:24;;;;;;;21.98;13.07;;;2.30;99.90;;;;;;5004465;28;20030;-62
2022/01/08 05:23:50;;;;;;;27.33;12.05;;;2.20;99.90;;;;;;5002928;28;20026;-62
2022/01/08 05:26:16;;;;;;;26.88;13.02;;;2.20;99.90;;;;;;5009462;28;20026;-62
2022/01/08 05:28:44;;;;;;;28.75;13.52;;;2.20;99.90;;;;;;5007538;28;20022;-61
2022/01/08 05:31:11;;;;;;;32.78;14.88;;;2.20;99.90;;;;;;5010533;28;20025;-62
2022/01/08 05:33:36;;;;;;;30.60;14.88;;;2.20;99.90;;;;;;5002824;28;20048;-62
2022/01/08 05:36:02;;;;;;;36.65;15.88;;;2.20;99.90;;;;;;5000331;28;20038;-62
2022/01/08 05:38:28;;;;;;;27.70;15.18;;;2.20;99.90;;;;;;5007809;28;20057;-61
2022/01/08 05:40:53;;;;;;;33.55;16.40;;;2.20;99.90;;;;;;5005550;28;20037;-62
2022/01/08 05:43:19;;;;;;;33.33;16.85;;;2.10;99.90;;;;;;5008881;28;20022;-62
2022/01/08 05:45:44;;;;;;;38.10;15.88;;;2.10;99.90;;;;;;5001099;28;20031;-61
2022/01/08 05:48:10;;;;;;;36.00;17.55;;;2.00;99.90;;;;;;4999557;28;20026;-61
2022/01/08 05:50:36;;;;;;;31.02;16.13;;;2.00;99.90;;;;;;5010183;28;20544;-62
2022/01/08 05:53:01;;;;;;;37.63;18.02;;;1.90;99.90;;;;;;5009022;28;20029;-62
2022/01/08 05:55:27;;;;;;;37.90;18.05;;;1.80;99.90;;;;;;5007765;28;20116;-61
2022/01/08 05:57:53;;;;;;;35.60;18.73;;;1.80;99.90;;;;;;5007386;28;20030;-62
2022/01/08 06:00:18;;;;;;;39.15;19.65;;;1.70;99.90;;;;;;5006524;28;20073;-62
2022/01/08 06:02:44;;;;;;;45.17;20.00;;;1.70;99.90;;;;;;5007585;28;20038;-60
2022/01/08 06:05:10;;;;;;;34.35;19.20;;;1.60;99.90;;;;;;5006321;28;20033;-61
2022/01/08 06:07:36;;;;;;;36.80;19.80;;;1.60;99.90;;;;;;5000253;28;20101;-62
2022/01/08 06:10:02;;;;;;;45.90;20.50;;;1.60;99.90;;;;;;4998619;28;20030;-62
2022/01/08 06:12:28;;;;;;;39.67;19.88;;;1.60;99.90;;;;;;5009088;28;20053;-62
2022/01/08 06:14:54;;;;;;;39.78;19.77;;;1.50;99.90;;;;;;5003480;28;20554;-61
2022/01/08 06:17:19;;;;;;;41.53;20.10;;;1.50;99.90;;;;;;5003804;28;20038;-61
2022/01/08 06:19:45;;;;;;;47.95;22.08;;;1.50;99.90;;;;;;5008576;28;20030;-62
2022/01/08 06:22:10;;;;;;;51.33;23.42;;;1.50;99.90;;;;;;5001339;28;20113;-62
2022/01/08 06:24:36;;;;;;;51.20;23.75;;;1.50;99.90;;;;;;5008375;28;20031;-61
2022/01/08 06:27:02;;;;;;;44.10;22.90;;;1.50;99.90;;;;;;5002435;28;20084;-62
2022/01/08 06:29:27;;;;;;;49.53;24.13;;;1.50;99.90;;;;;;5005594;28;20452;-61
2022/01/08 06:31:53;;;;;;;48.95;22.33;;;1.60;99.90;;;;;;5001697;28;20096;-62
2022/01/08 06:34:19;;;;;;;54.13;22.70;;;1.60;99.90;;;;;;5009485;28;20034;-61
2022/01/08 06:36:47;;;;;;;43.28;22.63;;;1.70;99.90;;;;;;5008062;28;20621;-62
2022/01/08 06:39:13;;;;;;;41.63;23.25;;;1.80;99.90;;;;;;4998796;28;20031;-62
2022/01/08 06:41:39;;;;;;;49.30;22.40;;;1.80;99.90;;;;;;5003080;28;20399;-61
2022/01/08 06:44:05;;;;;;;38.03;21.10;;;1.80;99.90;;;;;;5001276;28;20037;-62
2022/01/08 06:46:30;;;;;;;48.70;21.50;;;1.80;99.90;;;;;;5004347;28;20022;-62
2022/01/08 06:48:56;;;;;;;50.88;25.52;;;1.90;99.90;;;;;;5003880;28;20022;-60
2022/01/08 06:51:21;;;;;;;92.00;41.10;;;1.90;99.90;;;;;;5007104;28;20026;-62
2022/01/08 06:53:47;;;;;;;54.55;23.58;;;1.90;99.90;;;;;;5004006;28;20037;-61
2022/01/08 06:56:13;;;;;;;58.25;30.25;;;1.90;99.90;;;;;;5005983;28;20113;-61
2022/01/08 06:58:38;;;;;;;77.22;39.95;;;1.90;99.90;;;;;;5003777;28;20492;-61
2022/01/08 07:01:04;;;;;;;55.03;29.10;;;1.90;99.90;;;;;;5009443;28;20721;-62
2022/01/08 07:03:29;;;;;;;80.43;41.72;;;1.90;99.90;;;;;;5002490;28;20029;-62
2022/01/08 07:05:55;;;;;;;53.13;26.60;;;2.00;99.90;;;;;;5003565;28;20030;-62
2022/01/08 07:08:21;;;;;;;51.83;22.42;;;2.00;99.90;;;;;;5008405;28;20037;-62
2022/01/08 07:10:46;;;;;;;45.05;21.67;;;2.00;99.90;;;;;;5004727;28;20034;-62
2022/01/08 07:13:12;;;;;;;53.58;26.15;;;2.00;99.90;;;;;;5008229;28;20046;-62
2022/01/08 07:15:37;;;;;;;44.78;22.48;;;2.00;99.90;;;;;;5005379;28;20038;-62
2022/01/08 07:18:03;;;;;;;50.03;23.02;;;2.10;99.90;;;;;;5005381;28;20057;-62
2022/01/08 07:20:28;;;;;;;49.00;25.17;;;2.00;99.90;;;;;;5004712;28;20030;-62
2022/01/08 07:22:54;;;;;;;48.83;25.02;;;2.00;99.90;;;;;;5011610;28;20101;-60
2022/01/08 07:25:19;;;;;;;52.10;26.63;;;2.00;99.90;;;;;;5003110;28;20026;-62
2022/01/08 07:27:45;;;;;;;48.92;25.98;;;2.00;99.90;;;;;;5011104;28;20113;-61
2022/01/08 07:30:11;;;;;;;48.30;25.02;;;2.00;99.90;;;;;;5009623;28;20072;-62
2022/01/08 07:32:44;;;;;;;55.38;27.08;;;2.00;99.90;;;;;;5010335;28;20033;-61
2022/01/08 07:35:11;;;;;;;49.15;23.42;;;2.00;99.90;;;;;;5012188;28;20049;-61
2022/01/08 07:37:37;;;;;;;54.55;24.08;;;2.00;99.90;;;;;;5001573;28;20029;-62
2022/01/08 07:40:04;;;;;;;45.00;23.63;;;2.00;99.90;;;;;;5009729;28;20018;-61
2022/01/08 07:42:30;;;;;;;49.03;23.60;;;2.00;99.90;;;;;;5011881;28;20094;-61
2022/01/08 07:44:55;;;;;;;45.55;24.00;;;2.10;99.90;;;;;;5002951;28;20487;-61
2022/01/08 07:47:21;;;;;;;46.40;24.10;;;2.10;99.90;;;;;;5010024;28;20029;-61
2022/01/08 07:49:47;;;;;;;50.80;22.15;;;2.10;99.90;;;;;;5011220;28;20022;-61
2022/01/08 07:52:12;;;;;;;47.45;24.02;;;2.10;99.90;;;;;;5011041;28;20022;-61
2022/01/08 07:54:38;;;;;;;45.78;23.67;;;2.10;99.90;;;;;;5006513;28;20030;-60
2022/01/08 07:57:04;;;;;;;59.13;25.67;;;2.10;99.90;;;;;;5011432;28;20056;-61
2022/01/08 07:59:29;;;;;;;40.08;21.58;;;2.10;99.90;;;;;;5007180;28;20030;-61
2022/01/08 08:01:55;;;;;;;48.35;22.80;;;2.10;99.90;;;;;;5006999;28;20430;-63
2022/01/08 08:04:20;;;;;;;49.60;21.98;;;2.00;99.90;;;;;;5009594;28;20025;-60
2022/01/08 08:06:47;;;;;;;44.42;22.63;;;2.00;99.90;;;;;;5008856;28;20037;-60
2022/01/08 08:09:14;;;;;;;48.97;22.20;;;2.00;99.90;;;;;;5006935;28;20037;-61
2022/01/08 08:11:41;;;;;;;46.60;22.95;;;2.00;99.90;;;;;;5008883;28;20049;-61
2022/01/08 08:14:07;;;;;;;52.38;25.25;;;2.10;99.90;;;;;;5010432;28;20042;-63
2022/01/08 08:16:32;;;;;;;43.70;22.15;;;2.10;99.90;;;;;;5010957;28;20026;-62
2022/01/08 08:18:58;;;;;;;46.40;20.83;;;2.10;99.90;;;;;;5011267;28;20395;-62
2022/01/08 08:21:24;;;;;;;53.75;26.38;;;2.10;99.90;;;;;;5007277;28;20037;-62
2022/01/08 08:23:49;;;;;;;41.28;21.27;;;2.10;99.90;;;;;;5007528;28;20030;-61
2022/01/08 08:26:15;;;;;;;43.45;20.50;;;2.10;99.90;;;;;;5002451;28;20029;-62
2022/01/08 08:28:41;;;;;;;36.60;19.02;;;2.10;99.90;;;;;;5010480;28;20030;-62
2022/01/08 08:31:08;;;;;;;42.28;20.67;;;2.20;99.90;;;;;;5008443;28;20108;-62
2022/01/08 08:33:33;;;;;;;40.35;21.45;;;2.40;99.90;;;;;;5011053;28;20042;-60
2022/01/08 08:35:59;;;;;;;35.50;17.52;;;2.40;99.90;;;;;;5010530;28;20037;-62
2022/01/08 08:38:25;;;;;;;38.47;21.33;;;2.60;99.90;;;;;;5008368;28;20395;-62
2022/01/08 08:40:51;;;;;;;47.15;25.88;;;2.60;99.90;;;;;;5009866;28;20120;-62
2022/01/08 08:43:19;;;;;;;56.50;31.20;;;2.60;99.90;;;;;;4999606;28;20021;-61
2022/01/08 08:45:45;;;;;;;42.92;21.88;;;2.50;99.90;;;;;;5009587;28;20030;-62
2022/01/08 08:48:11;;;;;;;30.30;16.00;;;2.50;99.90;;;;;;5004765;28;20089;-62
2022/01/08 08:50:36;;;;;;;36.25;16.75;;;2.50;99.90;;;;;;5010911;28;20041;-62
2022/01/08 08:53:02;;;;;;;34.60;17.33;;;2.60;99.90;;;;;;5009536;28;20032;-62
2022/01/08 08:55:28;;;;;;;36.40;17.02;;;2.60;99.90;;;;;;5010729;28;20448;-62
2022/01/08 08:57:53;;;;;;;35.33;17.67;;;2.60;99.90;;;;;;5008569;28;20124;-61
2022/01/08 09:00:19;;;;;;;34.08;17.70;;;2.50;99.90;;;;;;5010525;28;20084;-61
2022/01/08 09:02:45;;;;;;;32.38;17.75;;;2.50;99.90;;;;;;5009746;28;20037;-61
2022/01/08 09:05:11;;;;;;;34.83;17.02;;;2.50;99.90;;;;;;5010559;28;20018;-62
2022/01/08 09:07:37;;;;;;;39.95;16.85;;;2.40;99.90;;;;;;5010179;28;20053;-62
2022/01/08 09:10:09;;;;;;;30.30;15.82;;;2.60;99.90;;;;;;5010518;28;20061;-62
2022/01/08 09:12:35;;;;;;;29.80;14.88;;;2.60;99.90;;;;;;5009956;28;20068;-61
2022/01/08 09:15:01;;;;;;;33.00;15.75;;;2.80;99.90;;;;;;5009159;28;20022;-62
2022/01/08 09:17:27;;;;;;;43.00;17.25;;;2.80;99.90;;;;;;5009441;28;20033;-62
2022/01/08 09:19:53;;;;;;;38.35;17.58;;;2.80;99.90;;;;;;5009672;28;20038;-62
2022/01/08 09:22:18;;;;;;;34.42;16.33;;;2.90;99.90;;;;;;4999762;28;20038;-61
2022/01/08 09:24:47;;;;;;;30.85;14.07;;;2.90;99.90;;;;;;5010057;28;20030;-62
2022/01/08 09:27:13;;;;;;;30.95;13.25;;;3.00;99.90;;;;;;5008323;28;20026;-62
2022/01/08 09:29:38;;;;;;;32.22;13.27;;;2.90;99.90;;;;;;5009986;28;20034;-62
2022/01/08 09:32:05;;;;;;;29.13;14.02;;;2.80;99.90;;;;;;4999473;28;20041;-62
2022/01/08 09:34:32;;;;;;;21.63;12.40;;;2.80;99.90;;;;;;5008231;28;20030;-61
2022/01/08 09:36:58;;;;;;;27.38;13.77;;;2.80;99.90;;;;;;5008583;28;20052;-61
2022/01/08 09:39:24;;;;;;;28.23;11.25;;;2.80;99.90;;;;;;5009135;28;20036;-62
2022/01/08 09:41:50;;;;;;;25.75;11.82;;;2.80;99.90;;;;;;5001007;28;20035;-62
2022/01/08 09:44:15;;;;;;;24.70;10.95;;;2.90;99.90;;;;;;5007320;28;20029;-61
2022/01/08 09:46:41;;;;;;;21.67;9.48;;;2.90;99.90;;;;;;5009018;28;20392;-61
2022/01/08 09:49:07;;;;;;;25.67;11.73;;;3.00;99.90;;;;;;5008646;28;20376;-61
2022/01/08 09:51:33;;;;;;;27.48;12.27;;;3.10;99.90;;;;;;5010123;28;20029;-62
2022/01/08 09:54:00;;;;;;;29.70;10.20;;;3.20;99.90;;;;;;5007011;28;20041;-61
2022/01/08 09:56:28;;;;;;;26.42;11.35;;;3.30;99.90;;;;;;5002661;28;20104;-61
2022/01/08 09:58:55;;;;;;;18.85;8.40;;;3.20;99.90;;;;;;5007065;28;20033;-61
2022/01/08 10:01:30;;;;;;;19.65;9.85;;;3.20;99.90;;;;;;5005800;28;20022;-62
2022/01/08 10:03:58;;;;;;;38.17;15.75;;;3.30;99.90;;;;;;5008713;28;20065;-62
2022/01/08 10:06:27;;;;;;;20.63;11.02;;;3.30;99.90;;;;;;5007901;28;20054;-61
2022/01/08 10:08:53;;;;;;;20.45;10.13;;;3.20;99.90;;;;;;5008033;28;20028;-61
2022/01/08 10:11:20;;;;;;;20.42;10.50;;;3.20;99.90;;;;;;4993386;28;20034;-61
2022/01/08 10:13:48;;;;;;;29.13;12.80;;;3.30;99.90;;;;;;5003482;28;20492;-61
2022/01/08 10:19:01;;;;;;;19.58;9.77;;;3.40;99.90;;;;;;5008773;28;20041;-61
2022/01/08 10:21:30;;;;;;;26.08;10.23;;;3.50;99.90;;;;;;5008974;28;20109;-62
2022/01/08 10:24:02;;;;;;;24.73;9.38;;;3.60;99.90;;;;;;5008981;28;20030;-60
2022/01/08 10:26:31;;;;;;;20.83;8.38;;;3.60;99.90;;;;;;5007897;28;20070;-61
2022/01/08 10:29:26;;;;;;;16.88;7.55;;;3.60;99.90;;;;;;5009506;28;20026;-61
2022/01/08 10:31:53;;;;;;;22.08;8.40;;;3.60;99.90;;;;;;4994215;28;20045;-61
2022/01/08 10:34:20;;;;;;;12.52;5.43;;;3.50;99.90;;;;;;5008938;28;20084;-61
2022/01/08 10:37:00;;;;;;;11.57;5.28;;;3.40;99.90;;;;;;5007720;28;20029;-60
2022/01/08 10:39:31;;;;;;;18.67;6.68;;;3.30;99.90;;;;;;5006766;28;20554;-61
2022/01/08 10:41:58;;;;;;;20.75;8.20;;;3.40;99.90;;;;;;5006495;28;20026;-61
2022/01/08 10:44:25;;;;;;;26.38;10.02;;;3.40;99.90;;;;;;5009687;28;20033;-61
2022/01/08 10:46:56;;;;;;;14.10;5.53;;;3.50;99.90;;;;;;5009946;28;20037;-61
2022/01/08 10:49:32;;;;;;;21.25;8.15;;;3.60;99.90;;;;;;5012966;28;20018;-61
2022/01/08 10:52:09;;;;;;;19.80;7.80;;;3.50;99.90;;;;;;5008753;28;20041;-61
2022/01/08 10:54:43;;;;;;;17.63;7.00;;;3.50;99.90;;;;;;5025061;28;20435;-61
2022/01/08 10:57:09;;;;;;;;;;;3.50;99.90;;;;;;5009424;28;20045;-61
2022/01/08 10:59:36;;;;;;;17.23;7.20;;;3.60;99.90;;;;;;5012598;28;19960;-60
2022/01/08 11:02:03;;;;;;;29.65;8.98;;;3.60;99.90;;;;;;5008737;28;20041;-62
2022/01/08 11:04:50;;;;;;;21.05;7.57;;;3.70;99.90;;;;;;5012547;28;20022;-60
2022/01/08 11:07:25;;;;;;;14.25;4.15;;;3.90;99.90;;;;;;5011814;28;20026;-61
2022/01/08 11:09:56;;;;;;;12.30;4.90;;;4.00;99.90;;;;;;5011577;28;20026;-61
2022/01/08 11:12:26;;;;;;;19.13;7.45;;;4.00;99.90;;;;;;5011512;28;20053;-61
2022/01/08 11:17:25;;;;;;;12.88;4.78;;;4.00;99.90;;;;;;5003163;28;20044;-63
2022/01/08 11:19:56;;;;;;;11.00;4.53;;;3.80;99.90;;;;;;5010411;28;20117;-61
2022/01/08 11:22:24;;;;;;;12.25;4.85;;;3.80;99.90;;;;;;5006631;28;20032;-61
2022/01/08 11:24:56;;;;;;;12.27;5.30;;;3.70;99.90;;;;;;5009909;28;20038;-61
2022/01/08 11:27:24;;;;;;;14.27;5.93;;;3.70;99.90;;;;;;5004281;28;20498;-60
2022/01/08 11:29:57;;;;;;;14.02;6.25;;;3.80;99.90;;;;;;5011158;28;20570;-61
2022/01/08 11:32:26;;;;;;;11.30;5.15;;;3.70;99.90;;;;;;5003499;28;20038;-62
2022/01/08 11:34:53;;;;;;;13.48;6.10;;;3.80;99.90;;;;;;5004948;28;20034;-61
2022/01/08 11:37:22;;;;;;;13.65;5.10;;;3.90;99.90;;;;;;5011748;28;20060;-60
2022/01/08 11:39:51;;;;;;;16.67;4.82;;;3.90;99.90;;;;;;5005768;28;20058;-61
2022/01/08 11:42:20;;;;;;;16.10;4.50;;;3.80;99.90;;;;;;5008330;28;20049;-61
2022/01/08 11:44:47;;;;;;;11.10;4.32;;;3.90;99.90;;;;;;5010722;28;20056;-60
2022/01/08 11:47:13;;;;;;;7.82;4.15;;;4.00;99.90;;;;;;5001662;28;20089;-60
2022/01/08 11:49:41;;;;;;;7.95;3.55;;;4.00;99.90;;;;;;5001651;28;20424;-59
2022/01/08 11:52:14;;;;;;;9.07;4.50;;;4.00;99.90;;;;;;5001421;28;20496;-60
2022/01/08 11:54:44;;;;;;;6.55;4.07;;;3.90;99.90;;;;;;5011065;28;20038;-61
2022/01/08 11:57:23;;;;;;;11.68;3.50;;;3.90;99.90;;;;;;5005621;28;20184;-60
2022/01/08 11:59:56;;;;;;;9.23;3.72;;;3.90;99.90;;;;;;5005719;28;20058;-60
2022/01/08 12:02:33;;;;;;;8.15;3.85;;;3.90;99.90;;;;;;5023628;28;20099;-61
2022/01/08 12:04:59;;;;;;;10.85;3.20;;;3.90;99.90;;;;;;5024131;28;20030;-61
2022/01/08 12:07:24;;;;;;;6.22;2.83;;;3.90;99.90;;;;;;5025686;28;20025;-61
2022/01/08 12:10:10;;;;;;;8.30;2.90;;;3.80;99.90;;;;;;5026145;28;20105;-61
2022/01/08 12:12:49;;;;;;;9.27;3.25;;;3.80;99.90;;;;;;5015078;28;20558;-61
2022/01/08 12:15:16;;;;;;;8.98;3.25;;;3.80;99.90;;;;;;5007555;28;20034;-61
2022/01/08 12:17:57;;;;;;;8.80;3.10;;;3.70;99.90;;;;;;5008553;28;20033;-61
2022/01/08 12:20:47;;;;;;;8.77;3.28;;;3.60;99.90;;;;;;5005740;28;20033;-60
2022/01/08 12:23:34;;;;;;;6.15;2.95;;;3.80;99.90;;;;;;4998679;28;20377;-61
2022/01/08 12:26:03;;;;;;;8.35;3.75;;;3.80;99.90;;;;;;5012293;28;20026;-61
2022/01/08 12:28:53;;;;;;;9.10;3.45;;;3.80;99.90;;;;;;5008634;28;20030;-61
2022/01/08 12:31:35;;;;;;;10.80;4.65;;;3.80;99.90;;;;;;5006540;28;20026;-62
2022/01/08 12:34:28;;;;;;;9.13;3.40;;;3.90;99.90;;;;;;5007337;28;20105;-61
2022/01/08 12:36:56;;;;;;;9.85;4.53;;;4.00;99.90;;;;;;5009337;28;20041;-61
2022/01/08 12:39:25;;;;;;;9.30;2.83;;;4.00;99.90;;;;;;4999468;28;20124;-61
2022/01/08 12:42:10;;;;;;;6.15;2.83;;;4.00;99.90;;;;;;5005344;28;20048;-59
2022/01/08 12:44:38;;;;;;;4.35;1.98;;;4.00;99.90;;;;;;5002379;28;20026;-62
2022/01/08 12:47:04;;;;;;;7.85;2.67;;;4.10;99.90;;;;;;5005271;28;20029;-61
2022/01/08 12:49:29;;;;;;;6.50;2.42;;;4.10;99.90;;;;;;5001547;28;20513;-60
2022/01/08 12:51:57;;;;;;;12.93;4.13;;;4.30;99.90;;;;;;5010559;28;20034;-62
2022/01/08 12:54:23;;;;;;;10.25;2.90;;;4.40;99.90;;;;;;4994205;28;20054;-60
2022/01/08 12:56:51;;;;;;;26.05;9.13;;;4.40;99.90;;;;;;5009661;28;20034;-60
2022/01/08 12:59:18;;;;;;;18.88;8.13;;;4.30;99.90;;;;;;4993448;28;20030;-60
2022/01/08 13:01:48;;;;;;;14.43;3.25;;;4.10;99.90;;;;;;4999343;28;20117;-60
2022/01/08 13:04:20;;;;;;;11.48;3.88;;;4.00;99.90;;;;;;5000850;28;20041;-60
2022/01/08 13:06:46;;;;;;;7.72;2.90;;;3.90;99.90;;;;;;4994997;28;20054;-60
2022/01/08 13:09:12;;;;;;;9.90;3.42;;;3.90;99.90;;;;;;5011253;28;20542;-60
2022/01/08 13:11:40;;;;;;;7.97;3.67;;;3.90;99.90;;;;;;5000388;28;20041;-60
2022/01/08 13:14:06;;;;;;;15.43;5.93;;;3.80;99.90;;;;;;4995594;28;20077;-60